sensor_id;sensor_type;location;lat;lon;timestamp;pressure;altitude;pressure_sealevel;temperature;humidity
76762;BME280;65705;51.032;13.790;2023-05-07T00:01:49;100716.81;;;11.94;72.99
76762;BME280;65705;51.032;13.790;2023-05-07T00:04:15;100721.59;;;11.98;72.56
76762;BME280;65705;51.032;13.790;2023-05-07T00:06:41;100716.34;;;11.98;72.84
76762;BME280;65705;51.032;13.790;2023-05-07T00:09:07;100718.88;;;12.08;72.06
76762;BME280;65705;51.032;13.790;2023-05-07T00:11:33;100723.78;;;12.03;72.12
76762;BME280;65705;51.032;13.790;2023-05-07T00:13:58;100729.13;;;11.93;72.27
76762;BME280;65705;51.032;13.790;2023-05-07T00:16:25;100734.53;;;11.92;72.27
76762;BME280;65705;51.032;13.790;2023-05-07T00:18:50;100728.44;;;11.91;72.46
76762;BME280;65705;51.032;13.790;2023-05-07T00:21:16;100730.34;;;11.81;72.72
76762;BME280;65705;51.032;13.790;2023-05-07T00:23:42;100732.81;;;11.83;72.76
76762;BME280;65705;51.032;13.790;2023-05-07T00:26:08;100732.66;;;11.84;72.32
76762;BME280;65705;51.032;13.790;2023-05-07T00:28:33;100740.09;;;11.89;72.22
76762;BME280;65705;51.032;13.790;2023-05-07T00:30:59;100729.81;;;11.78;72.25
76762;BME280;65705;51.032;13.790;2023-05-07T00:33:28;100731.16;;;11.82;72.49
76762;BME280;65705;51.032;13.790;2023-05-07T00:35:59;100729.34;;;11.82;72.60
76762;BME280;65705;51.032;13.790;2023-05-07T00:38:27;100729.00;;;11.77;72.68
76762;BME280;65705;51.032;13.790;2023-05-07T00:40:56;100737.41;;;11.81;72.83
76762;BME280;65705;51.032;13.790;2023-05-07T00:43:21;100736.34;;;11.74;72.91
76762;BME280;65705;51.032;13.790;2023-05-07T00:45:48;100739.94;;;11.73;72.87
76762;BME280;65705;51.032;13.790;2023-05-07T00:48:14;100738.97;;;11.74;72.79
76762;BME280;65705;51.032;13.790;2023-05-07T00:50:40;100731.00;;;11.65;72.79
76762;BME280;65705;51.032;13.790;2023-05-07T00:53:06;100741.66;;;11.64;73.05
76762;BME280;65705;51.032;13.790;2023-05-07T00:55:33;100733.47;;;11.67;73.12
76762;BME280;65705;51.032;13.790;2023-05-07T00:57:59;100726.63;;;11.56;73.33
76762;BME280;65705;51.032;13.790;2023-05-07T01:00:24;100728.13;;;11.41;73.46
76762;BME280;65705;51.032;13.790;2023-05-07T01:02:50;100737.59;;;11.34;73.71
76762;BME280;65705;51.032;13.790;2023-05-07T01:05:18;100729.53;;;11.36;73.71
76762;BME280;65705;51.032;13.790;2023-05-07T01:07:44;100723.91;;;11.31;74.01
76762;BME280;65705;51.032;13.790;2023-05-07T01:10:11;100728.34;;;11.30;73.70
76762;BME280;65705;51.032;13.790;2023-05-07T01:12:38;100733.09;;;11.17;73.92
76762;BME280;65705;51.032;13.790;2023-05-07T01:15:06;100730.31;;;11.19;73.89
76762;BME280;65705;51.032;13.790;2023-05-07T01:17:39;100724.34;;;11.26;73.74
76762;BME280;65705;51.032;13.790;2023-05-07T01:20:09;100728.03;;;11.33;73.52
76762;BME280;65705;51.032;13.790;2023-05-07T01:22:40;100729.97;;;11.31;73.75
76762;BME280;65705;51.032;13.790;2023-05-07T01:25:07;100729.28;;;11.29;73.76
76762;BME280;65705;51.032;13.790;2023-05-07T01:27:35;100741.16;;;11.33;73.29
76762;BME280;65705;51.032;13.790;2023-05-07T01:30:05;100740.59;;;11.39;72.82
76762;BME280;65705;51.032;13.790;2023-05-07T01:35:05;100743.06;;;11.41;72.55
76762;BME280;65705;51.032;13.790;2023-05-07T01:37:32;100747.22;;;11.43;72.50
76762;BME280;65705;51.032;13.790;2023-05-07T01:39:58;100743.97;;;11.49;72.28
76762;BME280;65705;51.032;13.790;2023-05-07T01:42:25;100741.50;;;11.48;72.33
76762;BME280;65705;51.032;13.790;2023-05-07T01:44:51;100742.59;;;11.45;72.23
76762;BME280;65705;51.032;13.790;2023-05-07T01:47:16;100743.16;;;11.49;72.34
76762;BME280;65705;51.032;13.790;2023-05-07T01:49:43;100749.38;;;11.48;72.13
76762;BME280;65705;51.032;13.790;2023-05-07T01:52:10;100739.97;;;11.45;72.27
76762;BME280;65705;51.032;13.790;2023-05-07T01:54:37;100744.28;;;11.46;72.37
76762;BME280;65705;51.032;13.790;2023-05-07T01:57:03;100751.84;;;11.49;72.18
76762;BME280;65705;51.032;13.790;2023-05-07T01:59:29;100753.22;;;11.53;71.87
76762;BME280;65705;51.032;13.790;2023-05-07T02:01:55;100745.16;;;11.55;72.22
76762;BME280;65705;51.032;13.790;2023-05-07T02:04:21;100744.28;;;11.46;72.16
76762;BME280;65705;51.032;13.790;2023-05-07T02:06:47;100748.09;;;11.34;72.67
76762;BME280;65705;51.032;13.790;2023-05-07T02:09:13;100744.16;;;11.38;72.70
76762;BME280;65705;51.032;13.790;2023-05-07T02:11:42;100743.22;;;11.39;72.72
76762;BME280;65705;51.032;13.790;2023-05-07T02:14:08;100740.75;;;11.38;72.62
76762;BME280;65705;51.032;13.790;2023-05-07T02:16:33;100745.84;;;11.39;72.55
76762;BME280;65705;51.032;13.790;2023-05-07T02:19:00;100746.28;;;11.35;72.26
76762;BME280;65705;51.032;13.790;2023-05-07T02:21:26;100749.59;;;11.37;72.06
76762;BME280;65705;51.032;13.790;2023-05-07T02:23:51;100757.84;;;11.42;72.00
76762;BME280;65705;51.032;13.790;2023-05-07T02:26:17;100757.41;;;11.46;71.97
76762;BME280;65705;51.032;13.790;2023-05-07T02:28:43;100751.16;;;11.47;71.89
76762;BME280;65705;51.032;13.790;2023-05-07T02:31:09;100759.88;;;11.48;71.56
76762;BME280;65705;51.032;13.790;2023-05-07T02:33:35;100760.56;;;11.50;71.46
76762;BME280;65705;51.032;13.790;2023-05-07T02:36:10;100754.09;;;11.44;71.41
76762;BME280;65705;51.032;13.790;2023-05-07T02:39:03;100768.88;;;11.45;71.55
76762;BME280;65705;51.032;13.790;2023-05-07T02:41:29;100762.38;;;11.49;71.42
76762;BME280;65705;51.032;13.790;2023-05-07T02:43:54;100764.72;;;11.52;71.52
76762;BME280;65705;51.032;13.790;2023-05-07T02:46:20;100764.25;;;11.57;71.48
76762;BME280;65705;51.032;13.790;2023-05-07T02:48:52;100759.16;;;11.55;71.56
76762;BME280;65705;51.032;13.790;2023-05-07T02:51:21;100765.06;;;11.40;72.07
76762;BME280;65705;51.032;13.790;2023-05-07T02:53:53;100759.56;;;11.33;72.07
76762;BME280;65705;51.032;13.790;2023-05-07T02:56:20;100757.53;;;11.27;72.37
76762;BME280;65705;51.032;13.790;2023-05-07T02:58:46;100757.66;;;11.26;72.38
76762;BME280;65705;51.032;13.790;2023-05-07T03:01:13;100764.75;;;11.25;72.43
76762;BME280;65705;51.032;13.790;2023-05-07T03:03:48;100771.25;;;11.21;72.62
76762;BME280;65705;51.032;13.790;2023-05-07T03:06:14;100763.41;;;11.12;72.77
76762;BME280;65705;51.032;13.790;2023-05-07T03:08:39;100765.38;;;11.10;73.01
76762;BME280;65705;51.032;13.790;2023-05-07T03:11:06;100763.50;;;11.02;73.66
76762;BME280;65705;51.032;13.790;2023-05-07T03:13:32;100759.03;;;11.03;73.53
76762;BME280;65705;51.032;13.790;2023-05-07T03:15:57;100756.88;;;10.98;73.20
76762;BME280;65705;51.032;13.790;2023-05-07T03:18:23;100761.28;;;10.98;73.29
76762;BME280;65705;51.032;13.790;2023-05-07T03:20:49;100762.94;;;10.99;73.56
76762;BME280;65705;51.032;13.790;2023-05-07T03:23:16;100763.03;;;11.07;73.45
76762;BME280;65705;51.032;13.790;2023-05-07T03:25:42;100767.59;;;11.05;73.42
76762;BME280;65705;51.032;13.790;2023-05-07T03:28:08;100768.13;;;11.08;73.63
76762;BME280;65705;51.032;13.790;2023-05-07T03:30:40;100773.84;;;11.04;73.95
76762;BME280;65705;51.032;13.790;2023-05-07T03:33:06;100764.91;;;10.97;74.21
76762;BME280;65705;51.032;13.790;2023-05-07T03:35:32;100767.66;;;10.95;74.29
76762;BME280;65705;51.032;13.790;2023-05-07T03:37:58;100772.16;;;11.03;74.00
76762;BME280;65705;51.032;13.790;2023-05-07T03:40:26;100776.41;;;11.13;73.90
76762;BME280;65705;51.032;13.790;2023-05-07T03:42:53;100770.19;;;11.14;73.74
76762;BME280;65705;51.032;13.790;2023-05-07T03:45:22;100772.53;;;11.17;73.64
76762;BME280;65705;51.032;13.790;2023-05-07T03:47:57;100779.03;;;11.13;73.87
76762;BME280;65705;51.032;13.790;2023-05-07T03:50:23;100782.19;;;11.17;74.01
76762;BME280;65705;51.032;13.790;2023-05-07T03:52:49;100775.06;;;11.09;74.11
76762;BME280;65705;51.032;13.790;2023-05-07T03:55:18;100775.78;;;11.02;74.33
76762;BME280;65705;51.032;13.790;2023-05-07T03:57:49;100779.53;;;10.99;74.82
76762;BME280;65705;51.032;13.790;2023-05-07T04:00:15;100775.94;;;11.00;74.64
76762;BME280;65705;51.032;13.790;2023-05-07T04:02:47;100772.16;;;11.03;74.57
76762;BME280;65705;51.032;13.790;2023-05-07T04:05:16;100781.28;;;11.08;74.42
76762;BME280;65705;51.032;13.790;2023-05-07T04:07:44;100783.63;;;11.11;74.15
76762;BME280;65705;51.032;13.790;2023-05-07T04:10:12;100784.44;;;11.12;74.09
76762;BME280;65705;51.032;13.790;2023-05-07T04:12:41;100781.66;;;11.13;73.87
76762;BME280;65705;51.032;13.790;2023-05-07T04:15:09;100780.59;;;11.06;74.42
76762;BME280;65705;51.032;13.790;2023-05-07T04:17:35;100779.78;;;11.06;74.31
76762;BME280;65705;51.032;13.790;2023-05-07T04:20:01;100785.03;;;11.06;74.40
76762;BME280;65705;51.032;13.790;2023-05-07T04:22:28;100787.66;;;11.06;74.26
76762;BME280;65705;51.032;13.790;2023-05-07T04:24:54;100791.16;;;10.97;74.57
76762;BME280;65705;51.032;13.790;2023-05-07T04:27:20;100785.59;;;11.00;74.51
76762;BME280;65705;51.032;13.790;2023-05-07T04:29:47;100799.19;;;10.95;74.70
76762;BME280;65705;51.032;13.790;2023-05-07T04:32:14;100792.38;;;11.02;74.58
76762;BME280;65705;51.032;13.790;2023-05-07T04:34:40;100801.44;;;11.08;74.19
76762;BME280;65705;51.032;13.790;2023-05-07T04:37:07;100801.56;;;11.16;74.01
76762;BME280;65705;51.032;13.790;2023-05-07T04:39:33;100803.47;;;11.23;73.51
76762;BME280;65705;51.032;13.790;2023-05-07T04:42:01;100808.09;;;11.12;73.67
76762;BME280;65705;51.032;13.790;2023-05-07T04:44:28;100818.34;;;11.05;73.49
76762;BME280;65705;51.032;13.790;2023-05-07T04:46:56;100824.28;;;11.07;73.64
76762;BME280;65705;51.032;13.790;2023-05-07T04:49:23;100819.81;;;11.17;73.37
76762;BME280;65705;51.032;13.790;2023-05-07T04:51:51;100818.03;;;11.18;73.03
76762;BME280;65705;51.032;13.790;2023-05-07T04:54:20;100827.72;;;11.08;73.10
76762;BME280;65705;51.032;13.790;2023-05-07T04:56:46;100826.53;;;11.02;73.19
76762;BME280;65705;51.032;13.790;2023-05-07T04:59:12;100823.44;;;11.07;72.79
76762;BME280;65705;51.032;13.790;2023-05-07T05:01:37;100832.56;;;11.12;72.85
76762;BME280;65705;51.032;13.790;2023-05-07T05:04:04;100842.19;;;11.21;72.21
76762;BME280;65705;51.032;13.790;2023-05-07T05:06:30;100830.97;;;11.29;71.74
76762;BME280;65705;51.032;13.790;2023-05-07T05:08:56;100836.50;;;11.26;71.85
76762;BME280;65705;51.032;13.790;2023-05-07T05:11:22;100843.28;;;11.28;72.03
76762;BME280;65705;51.032;13.790;2023-05-07T05:13:48;100835.69;;;11.25;71.99
76762;BME280;65705;51.032;13.790;2023-05-07T05:16:18;100832.19;;;11.34;71.88
76762;BME280;65705;51.032;13.790;2023-05-07T05:18:44;100827.13;;;11.23;72.16
76762;BME280;65705;51.032;13.790;2023-05-07T05:21:16;100828.38;;;11.19;72.78
76762;BME280;65705;51.032;13.790;2023-05-07T05:23:43;100838.06;;;11.19;72.53
76762;BME280;65705;51.032;13.790;2023-05-07T05:26:11;100827.81;;;11.25;72.03
76762;BME280;65705;51.032;13.790;2023-05-07T05:28:37;100833.59;;;11.29;72.70
76762;BME280;65705;51.032;13.790;2023-05-07T05:31:04;100841.91;;;11.24;72.29
76762;BME280;65705;51.032;13.790;2023-05-07T05:33:33;100846.63;;;11.21;72.45
76762;BME280;65705;51.032;13.790;2023-05-07T05:36:03;100854.34;;;11.22;71.95
76762;BME280;65705;51.032;13.790;2023-05-07T05:38:29;100855.88;;;11.25;71.45
76762;BME280;65705;51.032;13.790;2023-05-07T05:40:55;100856.94;;;11.32;71.54
76762;BME280;65705;51.032;13.790;2023-05-07T05:43:22;100863.03;;;11.32;71.37
76762;BME280;65705;51.032;13.790;2023-05-07T05:45:48;100859.00;;;11.38;71.27
76762;BME280;65705;51.032;13.790;2023-05-07T05:48:14;100869.69;;;11.36;71.13
76762;BME280;65705;51.032;13.790;2023-05-07T05:50:41;100868.63;;;11.20;71.01
76762;BME280;65705;51.032;13.790;2023-05-07T05:53:08;100865.69;;;11.23;70.91
76762;BME280;65705;51.032;13.790;2023-05-07T05:55:34;100869.72;;;11.17;70.11
76762;BME280;65705;51.032;13.790;2023-05-07T05:58:00;100874.34;;;11.06;70.56
76762;BME280;65705;51.032;13.790;2023-05-07T06:00:28;100883.63;;;11.00;72.36
76762;BME280;65705;51.032;13.790;2023-05-07T06:02:59;100884.25;;;11.21;74.18
76762;BME280;65705;51.032;13.790;2023-05-07T06:05:25;100884.06;;;11.32;71.33
76762;BME280;65705;51.032;13.790;2023-05-07T06:07:53;100884.53;;;11.18;70.57
76762;BME280;65705;51.032;13.790;2023-05-07T06:10:19;100892.28;;;11.10;70.87
76762;BME280;65705;51.032;13.790;2023-05-07T06:12:45;100898.25;;;11.12;70.80
76762;BME280;65705;51.032;13.790;2023-05-07T06:15:12;100897.44;;;11.02;71.44
76762;BME280;65705;51.032;13.790;2023-05-07T06:17:39;100908.19;;;11.09;71.48
76762;BME280;65705;51.032;13.790;2023-05-07T06:20:06;100901.94;;;11.19;71.15
76762;BME280;65705;51.032;13.790;2023-05-07T06:22:32;100900.69;;;11.23;70.98
76762;BME280;65705;51.032;13.790;2023-05-07T06:24:59;100908.19;;;11.18;70.75
76762;BME280;65705;51.032;13.790;2023-05-07T06:27:25;100911.59;;;11.28;70.26
76762;BME280;65705;51.032;13.790;2023-05-07T06:29:51;100908.81;;;11.30;70.03
76762;BME280;65705;51.032;13.790;2023-05-07T06:32:17;100914.78;;;11.22;69.63
76762;BME280;65705;51.032;13.790;2023-05-07T06:34:44;100907.75;;;11.23;69.25
76762;BME280;65705;51.032;13.790;2023-05-07T06:37:11;100904.44;;;11.21;69.34
76762;BME280;65705;51.032;13.790;2023-05-07T06:39:59;100898.63;;;11.17;69.78
76762;BME280;65705;51.032;13.790;2023-05-07T06:42:25;100905.97;;;11.14;69.77
76762;BME280;65705;51.032;13.790;2023-05-07T06:44:56;100898.25;;;11.12;69.73
76762;BME280;65705;51.032;13.790;2023-05-07T06:47:22;100902.38;;;11.15;70.08
76762;BME280;65705;51.032;13.790;2023-05-07T06:49:51;100917.88;;;11.08;69.69
76762;BME280;65705;51.032;13.790;2023-05-07T06:52:20;100920.78;;;11.05;70.25
76762;BME280;65705;51.032;13.790;2023-05-07T06:54:50;100928.13;;;11.11;69.92
76762;BME280;65705;51.032;13.790;2023-05-07T06:57:19;100918.56;;;11.20;69.84
76762;BME280;65705;51.032;13.790;2023-05-07T06:59:45;100918.56;;;11.20;69.67
76762;BME280;65705;51.032;13.790;2023-05-07T07:02:11;100914.53;;;11.16;69.79
76762;BME280;65705;51.032;13.790;2023-05-07T07:04:37;100917.88;;;11.08;70.26
76762;BME280;65705;51.032;13.790;2023-05-07T07:07:06;100924.91;;;11.08;70.25
76762;BME280;65705;51.032;13.790;2023-05-07T07:09:32;100934.06;;;11.04;70.89
76762;BME280;65705;51.032;13.790;2023-05-07T07:11:59;100925.50;;;11.02;71.01
76762;BME280;65705;51.032;13.790;2023-05-07T07:14:25;100921.94;;;10.93;71.01
76762;BME280;65705;51.032;13.790;2023-05-07T07:16:53;100925.13;;;10.87;71.43
76762;BME280;65705;51.032;13.790;2023-05-07T07:19:19;100925.81;;;10.89;71.76
76762;BME280;65705;51.032;13.790;2023-05-07T07:21:48;100929.13;;;10.82;71.83
76762;BME280;65705;51.032;13.790;2023-05-07T07:24:14;100933.44;;;10.83;71.75
76762;BME280;65705;51.032;13.790;2023-05-07T07:26:45;100939.78;;;10.90;71.30
76762;BME280;65705;51.032;13.790;2023-05-07T07:29:12;100937.09;;;10.99;71.09
76762;BME280;65705;51.032;13.790;2023-05-07T07:31:40;100931.16;;;10.97;70.77
76762;BME280;65705;51.032;13.790;2023-05-07T07:34:06;100936.41;;;10.97;70.30
76762;BME280;65705;51.032;13.790;2023-05-07T07:36:32;100934.88;;;11.04;70.56
76762;BME280;65705;51.032;13.790;2023-05-07T07:38:57;100938.88;;;11.08;70.36
76762;BME280;65705;51.032;13.790;2023-05-07T07:41:23;100942.88;;;11.22;70.50
76762;BME280;65705;51.032;13.790;2023-05-07T07:43:50;100937.59;;;11.31;68.90
76762;BME280;65705;51.032;13.790;2023-05-07T07:46:18;100940.50;;;11.28;68.24
76762;BME280;65705;51.032;13.790;2023-05-07T07:48:44;100945.38;;;11.23;68.29
76762;BME280;65705;51.032;13.790;2023-05-07T07:51:10;100953.50;;;11.20;68.11
76762;BME280;65705;51.032;13.790;2023-05-07T07:53:36;100947.00;;;11.24;68.05
76762;BME280;65705;51.032;13.790;2023-05-07T07:56:02;100950.78;;;11.22;68.58
76762;BME280;65705;51.032;13.790;2023-05-07T07:58:31;100947.88;;;11.15;68.79
76762;BME280;65705;51.032;13.790;2023-05-07T08:00:58;100956.88;;;11.13;69.56
76762;BME280;65705;51.032;13.790;2023-05-07T08:03:25;100956.72;;;11.14;69.52
76762;BME280;65705;51.032;13.790;2023-05-07T08:05:55;100962.53;;;11.18;69.46
76762;BME280;65705;51.032;13.790;2023-05-07T08:08:21;100957.25;;;11.27;69.62
76762;BME280;65705;51.032;13.790;2023-05-07T08:10:48;100960.59;;;11.20;69.67
76762;BME280;65705;51.032;13.790;2023-05-07T08:13:23;100963.06;;;11.21;69.11
76762;BME280;65705;51.032;13.790;2023-05-07T08:15:49;100965.25;;;11.26;68.92
76762;BME280;65705;51.032;13.790;2023-05-07T08:18:15;100967.03;;;11.35;68.46
76762;BME280;65705;51.032;13.790;2023-05-07T08:20:42;100963.84;;;11.41;68.47
76762;BME280;65705;51.032;13.790;2023-05-07T08:23:13;100959.69;;;11.38;67.96
76762;BME280;65705;51.032;13.790;2023-05-07T08:25:40;100969.41;;;11.38;68.63
76762;BME280;65705;51.032;13.790;2023-05-07T08:28:08;100969.81;;;11.33;68.81
76762;BME280;65705;51.032;13.790;2023-05-07T08:30:34;100970.50;;;11.35;68.66
76762;BME280;65705;51.032;13.790;2023-05-07T08:33:00;100962.00;;;11.51;68.09
76762;BME280;65705;51.032;13.790;2023-05-07T08:35:26;100966.28;;;11.61;67.42
76762;BME280;65705;51.032;13.790;2023-05-07T08:37:53;100971.34;;;11.73;67.07
76762;BME280;65705;51.032;13.790;2023-05-07T08:40:22;100968.66;;;11.92;67.29
76762;BME280;65705;51.032;13.790;2023-05-07T08:42:53;100961.38;;;12.03;66.53
76762;BME280;65705;51.032;13.790;2023-05-07T08:45:20;100966.09;;;12.00;65.74
76762;BME280;65705;51.032;13.790;2023-05-07T08:47:51;100961.53;;;12.02;65.63
76762;BME280;65705;51.032;13.790;2023-05-07T08:50:20;100972.16;;;12.10;65.51
76762;BME280;65705;51.032;13.790;2023-05-07T08:52:48;100972.97;;;12.10;65.64
76762;BME280;65705;51.032;13.790;2023-05-07T08:55:16;100975.78;;;11.99;65.92
76762;BME280;65705;51.032;13.790;2023-05-07T08:57:43;100973.63;;;11.95;66.50
76762;BME280;65705;51.032;13.790;2023-05-07T09:00:10;100986.56;;;11.79;66.70
76762;BME280;65705;51.032;13.790;2023-05-07T09:02:37;100984.94;;;11.78;66.83
76762;BME280;65705;51.032;13.790;2023-05-07T09:05:04;100987.22;;;11.90;66.78
76762;BME280;65705;51.032;13.790;2023-05-07T09:07:31;100983.66;;;12.09;66.40
76762;BME280;65705;51.032;13.790;2023-05-07T09:09:57;100981.44;;;12.31;65.02
76762;BME280;65705;51.032;13.790;2023-05-07T09:12:23;100989.19;;;12.33;64.98
76762;BME280;65705;51.032;13.790;2023-05-07T09:14:49;100986.75;;;12.22;65.32
76762;BME280;65705;51.032;13.790;2023-05-07T09:17:16;100992.22;;;12.11;65.63
76762;BME280;65705;51.032;13.790;2023-05-07T09:19:44;100991.91;;;11.87;66.19
76762;BME280;65705;51.032;13.790;2023-05-07T09:22:11;100997.81;;;11.71;66.77
76762;BME280;65705;51.032;13.790;2023-05-07T09:24:48;101004.66;;;11.91;69.81
76762;BME280;65705;51.032;13.790;2023-05-07T09:27:15;101006.16;;;12.21;68.36
76762;BME280;65705;51.032;13.790;2023-05-07T09:29:43;101005.31;;;12.47;65.60
76762;BME280;65705;51.032;13.790;2023-05-07T09:32:10;101000.31;;;12.62;66.52
76762;BME280;65705;51.032;13.790;2023-05-07T09:34:36;101008.69;;;12.57;65.64
76762;BME280;65705;51.032;13.790;2023-05-07T09:37:03;101007.19;;;12.55;66.77
76762;BME280;65705;51.032;13.790;2023-05-07T09:39:43;101004.41;;;12.56;64.36
76762;BME280;65705;51.032;13.790;2023-05-07T09:42:11;100998.78;;;12.69;65.27
76762;BME280;65705;51.032;13.790;2023-05-07T09:44:38;101002.47;;;12.76;63.04
76762;BME280;65705;51.032;13.790;2023-05-07T09:47:10;101001.41;;;12.69;62.93
76762;BME280;65705;51.032;13.790;2023-05-07T09:49:47;101001.00;;;12.64;62.57
76762;BME280;65705;51.032;13.790;2023-05-07T09:52:15;100998.59;;;12.53;61.79
76762;BME280;65705;51.032;13.790;2023-05-07T09:54:46;101008.69;;;12.57;61.94
76762;BME280;65705;51.032;13.790;2023-05-07T09:57:16;101011.47;;;12.56;62.15
76762;BME280;65705;51.032;13.790;2023-05-07T09:59:49;101012.81;;;12.42;62.49
76762;BME280;65705;51.032;13.790;2023-05-07T10:02:19;101009.09;;;12.18;63.90
76762;BME280;65705;51.032;13.790;2023-05-07T10:04:48;101005.06;;;12.14;64.10
76762;BME280;65705;51.032;13.790;2023-05-07T10:07:18;101001.88;;;12.20;63.92
76762;BME280;65705;51.032;13.790;2023-05-07T10:09:45;100991.13;;;12.31;63.36
76762;BME280;65705;51.032;13.790;2023-05-07T10:12:21;101002.06;;;12.53;63.39
76762;BME280;65705;51.032;13.790;2023-05-07T10:14:48;101007.50;;;12.69;62.36
76762;BME280;65705;51.032;13.790;2023-05-07T10:17:16;101007.25;;;12.81;62.29
76762;BME280;65705;51.032;13.790;2023-05-07T10:19:47;100999.22;;;12.82;62.38
76762;BME280;65705;51.032;13.790;2023-05-07T10:22:15;101009.69;;;12.74;62.20
76762;BME280;65705;51.032;13.790;2023-05-07T10:24:44;101004.41;;;12.74;62.52
76762;BME280;65705;51.032;13.790;2023-05-07T10:27:17;101002.69;;;12.83;61.96
76762;BME280;65705;51.032;13.790;2023-05-07T10:30:05;101011.63;;;12.90;61.75
76762;BME280;65705;51.032;13.790;2023-05-07T10:32:45;101001.56;;;12.85;61.99
76762;BME280;65705;51.032;13.790;2023-05-07T10:35:26;101007.28;;;12.63;62.18
76762;BME280;65705;51.032;13.790;2023-05-07T10:37:55;100998.84;;;12.59;62.49
76762;BME280;65705;51.032;13.790;2023-05-07T10:40:23;100996.78;;;12.71;62.06
76762;BME280;65705;51.032;13.790;2023-05-07T10:42:58;100991.66;;;12.87;61.18
76762;BME280;65705;51.032;13.790;2023-05-07T10:45:32;100997.38;;;13.00;61.45
76762;BME280;65705;51.032;13.790;2023-05-07T10:48:14;100993.28;;;12.98;60.28
76762;BME280;65705;51.032;13.790;2023-05-07T10:50:48;100997.38;;;13.18;59.98
76762;BME280;65705;51.032;13.790;2023-05-07T10:55:50;100992.84;;;13.53;59.46
76762;BME280;65705;51.032;13.790;2023-05-07T11:00:49;100990.09;;;13.63;58.56
76762;BME280;65705;51.032;13.790;2023-05-07T11:03:25;100987.31;;;13.64;59.12
76762;BME280;65705;51.032;13.790;2023-05-07T11:06:13;100981.06;;;13.65;59.08
76762;BME280;65705;51.032;13.790;2023-05-07T11:08:59;100990.09;;;13.63;59.26
76762;BME280;65705;51.032;13.790;2023-05-07T11:11:49;100985.56;;;13.73;59.14
76762;BME280;65705;51.032;13.790;2023-05-07T11:14:55;100995.78;;;13.76;58.52
76762;BME280;65705;51.032;13.790;2023-05-07T11:17:27;100995.34;;;13.55;59.03
76762;BME280;65705;51.032;13.790;2023-05-07T11:20:02;100990.84;;;13.47;59.25
76762;BME280;65705;51.032;13.790;2023-05-07T11:22:44;100995.53;;;13.36;59.34
76762;BME280;65705;51.032;13.790;2023-05-07T11:25:19;100990.50;;;13.42;59.64
76762;BME280;65705;51.032;13.790;2023-05-07T11:27:49;100987.19;;;13.40;59.08
76762;BME280;65705;51.032;13.790;2023-05-07T11:30:18;100986.19;;;13.41;59.13
76762;BME280;65705;51.032;13.790;2023-05-07T11:32:47;100985.44;;;13.57;58.88
76762;BME280;65705;51.032;13.790;2023-05-07T11:35:14;100981.16;;;13.56;59.14
76762;BME280;65705;51.032;13.790;2023-05-07T11:37:42;100988.25;;;13.55;59.32
76762;BME280;65705;51.032;13.790;2023-05-07T11:40:09;100978.88;;;13.61;59.44
76762;BME280;65705;51.032;13.790;2023-05-07T11:42:38;100989.47;;;13.69;59.51
76762;BME280;65705;51.032;13.790;2023-05-07T11:45:05;100981.75;;;13.75;59.76
76762;BME280;65705;51.032;13.790;2023-05-07T11:47:32;100984.56;;;13.82;59.79
76762;BME280;65705;51.032;13.790;2023-05-07T11:50:03;100985.47;;;13.91;59.43
76762;BME280;65705;51.032;13.790;2023-05-07T11:52:30;100982.16;;;13.89;59.33
76762;BME280;65705;51.032;13.790;2023-05-07T11:54:57;100987.59;;;13.87;59.62
76762;BME280;65705;51.032;13.790;2023-05-07T11:57:24;100984.13;;;13.95;59.25
76762;BME280;65705;51.032;13.790;2023-05-07T11:59:57;100983.84;;;13.98;58.76
76762;BME280;65705;51.032;13.790;2023-05-07T12:02:24;100988.00;;;14.08;58.07
76762;BME280;65705;51.032;13.790;2023-05-07T12:04:52;100985.88;;;14.20;57.94
76762;BME280;65705;51.032;13.790;2023-05-07T12:07:18;100985.44;;;14.32;57.76
76762;BME280;65705;51.032;13.790;2023-05-07T12:09:45;100999.44;;;14.25;57.94
76762;BME280;65705;51.032;13.790;2023-05-07T12:12:11;100980.75;;;14.18;57.53
76762;BME280;65705;51.032;13.790;2023-05-07T12:14:41;100984.19;;;14.11;57.99
76762;BME280;65705;51.032;13.790;2023-05-07T12:17:08;100989.69;;;14.17;58.54
76762;BME280;65705;51.032;13.790;2023-05-07T12:19:35;100987.06;;;14.25;58.58
76762;BME280;65705;51.032;13.790;2023-05-07T12:22:05;100990.44;;;14.35;58.16
76762;BME280;65705;51.032;13.790;2023-05-07T12:24:45;100988.59;;;14.28;58.58
76762;BME280;65705;51.032;13.790;2023-05-07T12:27:11;100999.50;;;13.99;58.57
76762;BME280;65705;51.032;13.790;2023-05-07T12:29:37;100999.00;;;13.96;58.70
76762;BME280;65705;51.032;13.790;2023-05-07T12:32:06;101002.16;;;14.07;59.02
76762;BME280;65705;51.032;13.790;2023-05-07T12:34:32;101002.34;;;14.06;57.95
76762;BME280;65705;51.032;13.790;2023-05-07T12:37:02;100996.53;;;14.02;58.06
76762;BME280;65705;51.032;13.790;2023-05-07T12:39:29;101003.34;;;14.05;58.13
76762;BME280;65705;51.032;13.790;2023-05-07T12:41:56;101006.75;;;13.97;58.30
76762;BME280;65705;51.032;13.790;2023-05-07T12:44:33;100996.88;;;14.07;58.42
76762;BME280;65705;51.032;13.790;2023-05-07T12:47:02;100997.84;;;14.32;57.52
76762;BME280;65705;51.032;13.790;2023-05-07T12:49:28;100998.56;;;14.50;57.60
76762;BME280;65705;51.032;13.790;2023-05-07T12:51:55;100997.88;;;14.56;57.20
76762;BME280;65705;51.032;13.790;2023-05-07T12:54:31;100990.50;;;14.67;57.19